Norwegian Jade — C6WK7 — position and weather

sailwx.info

Track history (hours):
 
Tides and Currents Weather Stations Pressure Air Temp Water Temp Dewpoint Dewpoint Depression Visibility Wind Speed Wind Dir Waves Ship Positions

Norwegian Jade

Last reported at 2017-Jul-20 18:00 UTC. Time now 2017-Jul-22 16:56 UTC.
Position N 58°48' W 001°36'.

Length 294 m; draft 8.6 m.

Type: Passenger vessel. MMSI: 308416000.

Wind from 110 at 20 knots

Barometer 1004.0 mb
Air temperature 13.0 ° C
Visibility: greater than 5.4 NM
Water temperature 12.0 ° C

Date/timePositionNaut miles runAvg speedWind from/ knotsBaromVisibWave heightAir tempDewpointWater temp
2017-Jul-20 18:00N 58°48' W 001°36'108 7.0 110 / 201004.0 5.4 13.0 12.0
2017-Jul-20 02:33N 60°16' E 000°27'117.2
2017-Jul-20 02:30N 60°16' E 000°28'11717.6
2017-Jul-19 19:53N 60°43' E 004°19'717.4
2017-Jul-19 19:30N 60°44' E 004°32'815.4
2017-Jul-19 19:00N 60°42' E 004°48'815.7
2017-Jul-19 18:30N 60°35' E 004°54'917.3
2017-Jul-19 18:00N 60°27' E 005°01'612.8
2017-Jul-19 17:30N 60°23' E 005°11'4 8.4
2017-Jul-19 17:00N 60°24' E 005°19'0 0.0
2017-Jul-19 16:29N 60°24' E 005°19'0 0.0
2017-Jul-19 15:59N 60°24' E 005°19'0 0.0
2017-Jul-19 15:29N 60°24' E 005°19'0 0.0
2017-Jul-19 14:59N 60°24' E 005°19'0 0.0
2017-Jul-19 14:29N 60°24' E 005°19'0 0.0
2017-Jul-19 13:59N 60°24' E 005°19'0 0.0
2017-Jul-19 13:29N 60°24' E 005°19'0 0.0
2017-Jul-19 12:59N 60°24' E 005°19'0 0.0
2017-Jul-19 12:29N 60°24' E 005°19'0 0.0
2017-Jul-19 11:59N 60°24' E 005°19'0 0.0
2017-Jul-19 11:29N 60°24' E 005°19'0 0.0
2017-Jul-19 10:59N 60°24' E 005°19'0 0.0
2017-Jul-19 10:29N 60°24' E 005°19'0 0.0
2017-Jul-19 09:59N 60°24' E 005°19'0 0.0
2017-Jul-19 09:29N 60°24' E 005°19'0 0.0
2017-Jul-19 08:59N 60°24' E 005°19'0 0.0
2017-Jul-19 08:29N 60°24' E 005°19'0 0.0
2017-Jul-19 07:59N 60°24' E 005°19'0 0.0
2017-Jul-19 07:29N 60°24' E 005°19'0 0.0
2017-Jul-19 06:59N 60°24' E 005°19'0 0.0
2017-Jul-19 06:29N 60°24' E 005°19'0 0.0
2017-Jul-19 05:59N 60°24' E 005°19'0 0.0
2017-Jul-19 05:30N 60°24' E 005°19'2 3.9
2017-Jul-19 05:00N 60°24' E 005°15'5 9.4
2017-Jul-19 04:30N 60°25' E 005°06'714.7
2017-Jul-19 04:00N 60°31' E 004°58'918.3
2017-Jul-19 03:30N 60°39' E 004°51'713.9
2017-Jul-19 03:00N 60°45' E 004°42'510.4
2017-Jul-19 02:30N 60°47' E 004°32'610.9
2017-Jul-19 01:59N 60°51' E 004°26'611.6
2017-Jul-19 01:30N 60°57' E 004°21'611.4
2017-Jul-19 01:00N 61°02' E 004°20'611.2
2017-Jul-19 00:30N 61°08' E 004°19'4012.1
2017-Jul-18 21:13N 61°47' E 004°24'312.4
2017-Jul-18 21:00N 61°50' E 004°26'612.6
2017-Jul-18 20:30N 61°56' E 004°32'712.8
2017-Jul-18 19:59N 62°01' E 004°38'612.6
2017-Jul-18 19:30N 62°07' E 004°45'713.2
2017-Jul-18 19:00N 62°12' E 004°52'713.2
2017-Jul-18 18:30N 62°18' E 004°59'613.0
2017-Jul-18 18:00N 62°23' E 005°07'612.8
2017-Jul-18 17:30N 62°28' E 005°17'612.5
2017-Jul-18 17:00N 62°30' E 005°30'612.7
2017-Jul-18 16:30N 62°30' E 005°44'713.7
2017-Jul-18 16:00N 62°27' E 005°58'611.7
2017-Jul-18 15:30N 62°27' E 006°10'1 2.0
2017-Jul-18 14:58N 62°28' E 006°09'0 0.0
2017-Jul-18 13:58N 62°28' E 006°09'0 0.0
2017-Jul-18 13:28N 62°28' E 006°09'0 0.0
2017-Jul-18 12:58N 62°28' E 006°09'0 0.0
2017-Jul-18 12:28N 62°28' E 006°09'0 0.0
2017-Jul-18 11:58N 62°28' E 006°09'0 0.0
2017-Jul-18 11:28N 62°28' E 006°09'0 0.0
2017-Jul-18 10:58N 62°28' E 006°09'0 0.0
2017-Jul-18 10:28N 62°28' E 006°09'0 0.0
2017-Jul-18 09:58N 62°28' E 006°09'0 0.0
2017-Jul-18 09:28N 62°28' E 006°09'0 0.0
2017-Jul-18 08:58N 62°28' E 006°09'0 0.0
2017-Jul-18 08:28N 62°28' E 006°09'0 0.0
2017-Jul-18 07:58N 62°28' E 006°09'0 0.0
2017-Jul-18 07:28N 62°28' E 006°09'0 0.0
2017-Jul-18 06:58N 62°28' E 006°09'0 0.0
2017-Jul-18 06:28N 62°28' E 006°09'0 0.0
2017-Jul-18 05:55N 62°28' E 006°09'0 0.0
2017-Jul-18 05:29N 62°28' E 006°09'1 2.1
2017-Jul-18 05:00N 62°27' E 006°09'612.4
2017-Jul-18 04:30N 62°27' E 005°56'815.1
2017-Jul-18 04:00N 62°30' E 005°41'918.3
2017-Jul-18 03:30N 62°28' E 005°21'918.4
2017-Jul-18 03:00N 62°22' E 005°05'918.6
2017-Jul-18 02:30N 62°16' E 004°50'918.5
2017-Jul-18 02:01N 62°10' E 004°36'19917.5
2017-Jul-17 14:40N 58°52' E 004°19'317.9
2017-Jul-17 14:30N 58°49' E 004°21'917.8
2017-Jul-17 14:00N 58°40' E 004°27'917.8
2017-Jul-17 13:31N 58°32' E 004°33'918.2
2017-Jul-17 13:00N 58°24' E 004°38'13520.9
2017-Jul-17 06:33N 56°16' E 006°01'321.0
2017-Jul-17 06:25N 56°14' E 006°03'4621.1
2017-Jul-17 04:14N 55°31' E 006°30'521.0
2017-Jul-17 04:00N 55°26' E 006°33'1021.0
2017-Jul-17 03:30N 55°16' E 006°39'1020.7
2017-Jul-17 03:01N 55°06' E 006°46'1020.3
2017-Jul-17 02:30N 54°57' E 006°53'1020.2
2017-Jul-17 02:01N 54°48' E 007°01'4720.2
2017-Jul-16 23:40N 54°08' E 007°45'320.7
2017-Jul-16 23:30N 54°07' E 007°50'1019.8
2017-Jul-16 23:00N 54°02' E 008°04'612.3
2017-Jul-16 22:30N 54°01' E 008°14'917.0
2017-Jul-16 22:00N 53°59' E 008°28'918.8
2017-Jul-16 21:30N 53°54' E 008°42'714.8
2017-Jul-16 21:00N 53°51' E 008°53'918.4
2017-Jul-16 20:30N 53°53' E 009°08'713.9
2017-Jul-16 20:00N 53°51' E 009°20'815.4
2017-Jul-16 19:30N 53°44' E 009°26'612.9
2017-Jul-16 19:01N 53°39' E 009°31'612.8
2017-Jul-16 18:30N 53°34' E 009°39'510.9
2017-Jul-16 18:01N 53°33' E 009°49'4 8.7
2017-Jul-16 17:30N 53°33' E 009°56'0 0.8
2017-Jul-16 17:01N 53°33' E 009°56'0 0.0
2017-Jul-16 16:31N 53°33' E 009°56'0 0.0
2017-Jul-16 16:00N 53°33' E 009°56'0 0.0
2017-Jul-16 15:28N 53°33' E 009°56'0 0.0
2017-Jul-16 15:00N 53°33' E 009°56'0 0.0
2017-Jul-16 14:30N 53°33' E 009°56'0 0.0
2017-Jul-16 14:01N 53°33' E 009°56'0 0.0
2017-Jul-16 13:31N 53°33' E 009°56'0 0.0
2017-Jul-16 13:01N 53°33' E 009°56'0 0.0
2017-Jul-16 12:30N 53°33' E 009°56'0 0.0
2017-Jul-16 12:00N 53°33' E 009°56'0 0.0
2017-Jul-16 11:30N 53°33' E 009°56'0 0.0
2017-Jul-16 11:00N 53°33' E 009°56'0 0.0
2017-Jul-16 10:30N 53°33' E 009°56'0 0.0
2017-Jul-16 10:00N 53°33' E 009°56'0 0.0
2017-Jul-16 09:27N 53°33' E 009°56'0 0.0
2017-Jul-16 09:01N 53°33' E 009°56'0 0.0
2017-Jul-16 08:30N 53°33' E 009°56'0 0.0
2017-Jul-16 08:00N 53°33' E 009°56'0 0.0
2017-Jul-16 07:30N 53°33' E 009°56'0 0.0
2017-Jul-16 07:01N 53°33' E 009°56'0 0.0
2017-Jul-16 06:30N 53°33' E 009°56'0 0.0
2017-Jul-16 06:00N 53°33' E 009°56'0 0.0
2017-Jul-16 05:30N 53°33' E 009°56'0 0.0
2017-Jul-16 05:00N 53°33' E 009°56'0 0.0
2017-Jul-16 04:30N 53°33' E 009°56'0 0.0
2017-Jul-16 04:00N 53°33' E 009°56'0 0.0
2017-Jul-16 03:30N 53°33' E 009°56'2 4.5
2017-Jul-16 03:01N 53°33' E 009°53'4 7.7
2017-Jul-16 02:31N 53°34' E 009°46'510.2
2017-Jul-16 02:01N 53°35' E 009°38'510.2
2017-Jul-16 01:31N 53°38' E 009°32'510.9
2017-Jul-16 01:01N 53°43' E 009°28'611.8
2017-Jul-16 00:31N 53°48' E 009°23'714.3
2017-Jul-16 00:00N 53°53' E 009°14'510.8
2017-Jul-15 23:31N 53°52' E 009°04'714.8
2017-Jul-15 23:01N 53°50' E 008°52'612.8
2017-Jul-15 22:31N 53°53' E 008°42'815.5
2017-Jul-15 22:01N 53°58' E 008°32'916.9
2017-Jul-15 21:30N 53°60' E 008°18'612.9
2017-Jul-15 21:01N 53°59' E 008°07'612.4
2017-Jul-15 20:30N 54°01' E 007°57'713.4
2017-Jul-15 20:00N 54°05' E 007°47'713.4
2017-Jul-15 19:30N 54°09' E 007°39'815.6
2017-Jul-15 19:00N 54°16' E 007°33'815.5
2017-Jul-15 18:30N 54°23' E 007°27'1015.5
2017-Jul-15 17:52N 54°32' E 007°18'615.6
2017-Jul-15 17:29N 54°37' E 007°13'715.8
2017-Jul-15 17:00N 54°43' E 007°07'815.9
2017-Jul-15 16:30N 54°50' E 007°00'815.9
2017-Jul-15 16:00N 54°58' E 006°54'816.3
2017-Jul-15 15:30N 55°05' E 006°49'816.4
2017-Jul-15 15:00N 55°13' E 006°43'1716.6
2017-Jul-15 14:00N 55°28' E 006°33'17417.0
2017-Jul-15 03:45N 58°11' E 004°38'717.7
2017-Jul-15 03:20N 58°18' E 004°33'617.7
2017-Jul-15 02:58N 58°24' E 004°29'817.8
2017-Jul-15 02:30N 58°31' E 004°23'917.3
2017-Jul-15 01:58N 58°40' E 004°16'11416.7
2017-Jul-14 19:07N 60°35' E 004°22'217.7
2017-Jul-14 19:00N 60°36' E 004°24'917.9
2017-Jul-14 18:30N 60°43' E 004°35'713.8
2017-Jul-14 18:00N 60°42' E 004°49'815.9
2017-Jul-14 17:30N 60°35' E 004°55'918.1
2017-Jul-14 17:00N 60°27' E 005°01'612.3
2017-Jul-14 16:30N 60°24' E 005°13'3 5.8
2017-Jul-14 16:00N 60°23' E 005°18'0 0.0
2017-Jul-14 15:30N 60°23' E 005°18'0 0.0
2017-Jul-14 15:00N 60°23' E 005°18'0 0.0
2017-Jul-14 14:30N 60°23' E 005°18'0 0.0
2017-Jul-14 11:27N 60°23' E 005°18'0 0.0
2017-Jul-14 11:00N 60°23' E 005°18'0 0.0
2017-Jul-14 10:30N 60°23' E 005°18'0 0.0
2017-Jul-14 10:00N 60°23' E 005°18'0 0.0
2017-Jul-14 09:30N 60°23' E 005°18'0 0.0
2017-Jul-14 09:00N 60°23' E 005°18'0 0.0
2017-Jul-14 08:30N 60°23' E 005°18'0 0.0
2017-Jul-14 08:00N 60°23' E 005°18'0 0.0
2017-Jul-14 07:30N 60°23' E 005°18'0 0.0
2017-Jul-14 07:00N 60°23' E 005°18'0 0.0
2017-Jul-14 06:30N 60°23' E 005°18'0 0.0
2017-Jul-14 06:00N 60°23' E 005°18'0 0.2
2017-Jul-14 05:30N 60°24' E 005°18'2 3.5
2017-Jul-14 05:00N 60°24' E 005°15'4 8.4
2017-Jul-14 04:30N 60°24' E 005°06'713.3
2017-Jul-14 04:00N 60°30' E 004°58'918.0
2017-Jul-14 03:30N 60°38' E 004°53'714.7
2017-Jul-14 03:00N 60°44' E 004°44'611.2
2017-Jul-14 02:30N 60°46' E 004°33'612.0
2017-Jul-14 02:00N 60°51' E 004°26'713.7
2017-Jul-14 01:30N 60°58' E 004°20'7113.2
2017-Jul-13 20:05N 62°09' E 004°28'115.5
2017-Jul-13 20:00N 62°10' E 004°30'815.5
2017-Jul-13 19:30N 62°15' E 004°43'815.5
2017-Jul-13 19:00N 62°19' E 004°56'815.7
2017-Jul-13 18:30N 62°24' E 005°09'815.5
2017-Jul-13 18:00N 62°29' E 005°22'815.2
2017-Jul-13 17:30N 62°30' E 005°38'815.4
2017-Jul-13 17:00N 62°27' E 005°54'612.3
2017-Jul-13 16:30N 62°27' E 006°07'2 3.3
2017-Jul-13 16:00N 62°28' E 006°09'0 0.0
2017-Jul-13 15:30N 62°28' E 006°09'0 0.0
2017-Jul-13 15:00N 62°28' E 006°09'0 0.0
2017-Jul-13 14:30N 62°28' E 006°09'0 0.0
2017-Jul-13 14:00N 62°28' E 006°09'0 0.0
2017-Jul-13 13:30N 62°28' E 006°09'0 0.0
2017-Jul-13 13:00N 62°28' E 006°09'0 0.0
2017-Jul-13 12:30N 62°28' E 006°09'0 0.0
2017-Jul-13 12:00N 62°28' E 006°09'0 0.0
2017-Jul-13 11:30N 62°28' E 006°09'0 0.0
2017-Jul-13 11:00N 62°28' E 006°09'0 0.0
2017-Jul-13 10:30N 62°28' E 006°09'0 0.0
2017-Jul-13 10:00N 62°28' E 006°09'0 0.0
2017-Jul-13 09:30N 62°28' E 006°09'0 0.0
2017-Jul-13 09:00N 62°28' E 006°09'0 0.0
2017-Jul-13 08:30N 62°28' E 006°09'0 0.0
2017-Jul-13 08:00N 62°28' E 006°09'0 0.0
2017-Jul-13 07:30N 62°28' E 006°09'0 0.0
2017-Jul-13 07:00N 62°28' E 006°09'0 0.1
2017-Jul-13 06:30N 62°28' E 006°09'1 2.2
2017-Jul-13 06:00N 62°27' E 006°09'612.8
2017-Jul-13 05:29N 62°27' E 005°55'713.5
2017-Jul-13 05:00N 62°30' E 005°42'713.7
2017-Jul-13 04:30N 62°36' E 005°34'917.6
2017-Jul-13 04:00N 62°43' E 005°43'918.1
2017-Jul-13 03:30N 62°52' E 005°51'35118.8
2017-Jul-12 08:49N 68°05' E 012°16'721.8
2017-Jul-12 08:30N 68°10' E 012°27'1121.8
2017-Jul-12 08:00N 68°19' E 012°43'1121.6
2017-Jul-12 07:30N 68°28' E 013°02'1121.6
2017-Jul-12 07:00N 68°36' E 013°21'1121.4
2017-Jul-12 06:29N 68°45' E 013°39'1121.3
2017-Jul-12 06:00N 68°54' E 013°55'1121.7
2017-Jul-12 05:30N 69°02' E 014°13'1121.5
2017-Jul-12 05:00N 69°10' E 014°32'1121.5
2017-Jul-12 04:30N 69°18' E 014°55'1121.6
2017-Jul-12 04:00N 69°25' E 015°17'1121.9
2017-Jul-12 03:30N 69°33' E 015°40'1121.8
2017-Jul-12 03:00N 69°40' E 016°03'1121.4
2017-Jul-12 02:30N 69°48' E 016°25'1121.4
2017-Jul-12 02:00N 69°55' E 016°48'4821.4
2017-Jul-11 23:46N 70°27' E 018°31'620.9
2017-Jul-11 23:30N 70°30' E 018°46'1020.6
2017-Jul-11 23:00N 70°34' E 019°14'1121.4
2017-Jul-11 22:30N 70°38' E 019°43'4222.2
2017-Jul-11 20:36N 70°55' E 021°41'222.4
2017-Jul-11 20:30N 70°56' E 021°47'1121.8
2017-Jul-11 20:00N 71°00' E 022°17'1121.1
2017-Jul-11 19:30N 71°04' E 022°47'1121.1
2017-Jul-11 19:00N 71°08' E 023°18'1020.7
2017-Jul-11 18:30N 71°12' E 023°48'1020.8
2017-Jul-11 18:00N 71°11' E 024°20'1121.3
2017-Jul-11 17:30N 71°12' E 024°53'1020.7
2017-Jul-11 17:00N 71°13' E 025°25'1020.6
2017-Jul-11 16:30N 71°11' E 025°56'1019.8
2017-Jul-11 16:00N 71°03' E 026°17'816.5
2017-Jul-11 15:30N 70°57' E 025°59'2 3.6
2017-Jul-11 15:00N 70°59' E 025°58'0 0.0
2017-Jul-11 14:28N 70°59' E 025°58'0 0.0
2017-Jul-11 13:58N 70°59' E 025°58'0 0.0
2017-Jul-11 13:28N 70°59' E 025°58'0 0.0
2017-Jul-11 12:58N 70°59' E 025°58'0 0.0
2017-Jul-11 12:28N 70°59' E 025°58'0 0.0
2017-Jul-11 11:58N 70°59' E 025°58'0 0.0
2017-Jul-11 11:28N 70°59' E 025°58'0 0.0
2017-Jul-11 10:58N 70°59' E 025°58'0 0.0
2017-Jul-11 10:22N 70°59' E 025°58'0 0.0
2017-Jul-11 09:58N 70°59' E 025°58'0 0.0
2017-Jul-11 09:28N 70°59' E 025°58'0 0.0
2017-Jul-11 08:58N 70°59' E 025°58'0 0.0
2017-Jul-11 08:28N 70°59' E 025°58'0 0.0
2017-Jul-11 07:58N 70°59' E 025°58'0 0.0
2017-Jul-11 07:28N 70°59' E 025°58'0 0.0
2017-Jul-11 06:58N 70°59' E 025°58'0 0.0
2017-Jul-11 06:28N 70°59' E 025°58'0 0.0
2017-Jul-11 05:58N 70°59' E 025°58'0 0.0
2017-Jul-11 05:30N 70°59' E 025°58'2 3.8
2017-Jul-11 05:00N 70°57' E 025°55'510.6
2017-Jul-11 04:30N 70°56' E 025°41'5 9.3
2017-Jul-11 04:00N 70°58' E 025°27'5 9.9
2017-Jul-11 03:30N 70°59' E 025°13'611.5
2017-Jul-11 03:00N 70°59' E 024°56'713.8
2017-Jul-11 02:30N 71°02' E 024°36'713.2
2017-Jul-11 02:00N 70°58' E 024°21'714.0
2017-Jul-11 01:30N 70°53' E 024°05'713.2
2017-Jul-11 01:00N 70°49' E 023°49'612.6
2017-Jul-11 00:30N 70°45' E 023°34'612.5
2017-Jul-11 00:00N 70°40' E 023°22'612.4
2017-Jul-10 23:30N 70°35' E 023°12'612.1
2017-Jul-10 23:01N 70°31' E 022°58'712.7
2017-Jul-10 22:30N 70°29' E 022°40'612.5
2017-Jul-10 22:01N 70°27' E 022°22'712.8
2017-Jul-10 21:30N 70°26' E 022°03'612.9
2017-Jul-10 21:00N 70°24' E 021°44'611.8
2017-Jul-10 20:30N 70°21' E 021°31'612.4
2017-Jul-10 20:00N 70°16' E 021°18'612.3
2017-Jul-10 19:30N 70°12' E 021°05'713.6
2017-Jul-10 19:01N 70°06' E 020°58'612.5
2017-Jul-10 18:31N 70°02' E 020°43'713.5
2017-Jul-10 18:00N 70°00' E 020°24'  
Track history (hours):
 
Tides and Currents Weather Stations Pressure Air Temp Water Temp Dewpoint Dewpoint Depression Visibility Wind Speed Wind Dir Waves Ship Positions

Norwegian Jade

Last reported at 2017-Jul-20 18:00 UTC. Time now 2017-Jul-22 16:56 UTC.
Position N 58°48' W 001°36'.

Length 294 m; draft 8.6 m.

Type: Passenger vessel. MMSI: 308416000.

Wind from 110 at 20 knots

Barometer 1004.0 mb
Air temperature 13.0 ° C
Visibility: greater than 5.4 NM
Water temperature 12.0 ° C

Date/timePositionNaut miles runAvg speedWind from/ knotsBaromVisibWave heightAir tempDewpointWater temp
2017-Jul-20 18:00N 58°48' W 001°36'108 7.0 110 / 201004.0 5.4 13.0 12.0
2017-Jul-20 02:33N 60°16' E 000°27'117.2
2017-Jul-20 02:30N 60°16' E 000°28'11717.6
2017-Jul-19 19:53N 60°43' E 004°19'717.4
2017-Jul-19 19:30N 60°44' E 004°32'815.4
2017-Jul-19 19:00N 60°42' E 004°48'815.7
2017-Jul-19 18:30N 60°35' E 004°54'917.3
2017-Jul-19 18:00N 60°27' E 005°01'612.8
2017-Jul-19 17:30N 60°23' E 005°11'4 8.4
2017-Jul-19 17:00N 60°24' E 005°19'0 0.0
2017-Jul-19 16:29N 60°24' E 005°19'0 0.0
2017-Jul-19 15:59N 60°24' E 005°19'0 0.0
2017-Jul-19 15:29N 60°24' E 005°19'0 0.0
2017-Jul-19 14:59N 60°24' E 005°19'0 0.0
2017-Jul-19 14:29N 60°24' E 005°19'0 0.0
2017-Jul-19 13:59N 60°24' E 005°19'0 0.0
2017-Jul-19 13:29N 60°24' E 005°19'0 0.0
2017-Jul-19 12:59N 60°24' E 005°19'0 0.0
2017-Jul-19 12:29N 60°24' E 005°19'0 0.0
2017-Jul-19 11:59N 60°24' E 005°19'0 0.0
2017-Jul-19 11:29N 60°24' E 005°19'0 0.0
2017-Jul-19 10:59N 60°24' E 005°19'0 0.0
2017-Jul-19 10:29N 60°24' E 005°19'0 0.0
2017-Jul-19 09:59N 60°24' E 005°19'0 0.0
2017-Jul-19 09:29N 60°24' E 005°19'0 0.0
2017-Jul-19 08:59N 60°24' E 005°19'0 0.0
2017-Jul-19 08:29N 60°24' E 005°19'0 0.0
2017-Jul-19 07:59N 60°24' E 005°19'0 0.0
2017-Jul-19 07:29N 60°24' E 005°19'0 0.0
2017-Jul-19 06:59N 60°24' E 005°19'0 0.0
2017-Jul-19 06:29N 60°24' E 005°19'0 0.0
2017-Jul-19 05:59N 60°24' E 005°19'0 0.0
2017-Jul-19 05:30N 60°24' E 005°19'2 3.9
2017-Jul-19 05:00N 60°24' E 005°15'5 9.4
2017-Jul-19 04:30N 60°25' E 005°06'714.7
2017-Jul-19 04:00N 60°31' E 004°58'918.3
2017-Jul-19 03:30N 60°39' E 004°51'713.9
2017-Jul-19 03:00N 60°45' E 004°42'510.4
2017-Jul-19 02:30N 60°47' E 004°32'610.9
2017-Jul-19 01:59N 60°51' E 004°26'611.6
2017-Jul-19 01:30N 60°57' E 004°21'611.4
2017-Jul-19 01:00N 61°02' E 004°20'611.2
2017-Jul-19 00:30N 61°08' E 004°19'4012.1
2017-Jul-18 21:13N 61°47' E 004°24'312.4
2017-Jul-18 21:00N 61°50' E 004°26'612.6
2017-Jul-18 20:30N 61°56' E 004°32'712.8
2017-Jul-18 19:59N 62°01' E 004°38'612.6
2017-Jul-18 19:30N 62°07' E 004°45'713.2
2017-Jul-18 19:00N 62°12' E 004°52'713.2
2017-Jul-18 18:30N 62°18' E 004°59'613.0
2017-Jul-18 18:00N 62°23' E 005°07'612.8
2017-Jul-18 17:30N 62°28' E 005°17'612.5
2017-Jul-18 17:00N 62°30' E 005°30'612.7
2017-Jul-18 16:30N 62°30' E 005°44'713.7
2017-Jul-18 16:00N 62°27' E 005°58'611.7
2017-Jul-18 15:30N 62°27' E 006°10'1 2.0
2017-Jul-18 14:58N 62°28' E 006°09'0 0.0
2017-Jul-18 13:58N 62°28' E 006°09'0 0.0
2017-Jul-18 13:28N 62°28' E 006°09'0 0.0
2017-Jul-18 12:58N 62°28' E 006°09'0 0.0
2017-Jul-18 12:28N 62°28' E 006°09'0 0.0
2017-Jul-18 11:58N 62°28' E 006°09'0 0.0
2017-Jul-18 11:28N 62°28' E 006°09'0 0.0
2017-Jul-18 10:58N 62°28' E 006°09'0 0.0
2017-Jul-18 10:28N 62°28' E 006°09'0 0.0
2017-Jul-18 09:58N 62°28' E 006°09'0 0.0
2017-Jul-18 09:28N 62°28' E 006°09'0 0.0
2017-Jul-18 08:58N 62°28' E 006°09'0 0.0
2017-Jul-18 08:28N 62°28' E 006°09'0 0.0
2017-Jul-18 07:58N 62°28' E 006°09'0 0.0
2017-Jul-18 07:28N 62°28' E 006°09'0 0.0
2017-Jul-18 06:58N 62°28' E 006°09'0 0.0
2017-Jul-18 06:28N 62°28' E 006°09'0 0.0
2017-Jul-18 05:55N 62°28' E 006°09'0 0.0
2017-Jul-18 05:29N 62°28' E 006°09'1 2.1
2017-Jul-18 05:00N 62°27' E 006°09'612.4
2017-Jul-18 04:30N 62°27' E 005°56'815.1
2017-Jul-18 04:00N 62°30' E 005°41'918.3
2017-Jul-18 03:30N 62°28' E 005°21'918.4
2017-Jul-18 03:00N 62°22' E 005°05'918.6
2017-Jul-18 02:30N 62°16' E 004°50'918.5
2017-Jul-18 02:01N 62°10' E 004°36'19917.5
2017-Jul-17 14:40N 58°52' E 004°19'317.9
2017-Jul-17 14:30N 58°49' E 004°21'917.8
2017-Jul-17 14:00N 58°40' E 004°27'917.8
2017-Jul-17 13:31N 58°32' E 004°33'918.2
2017-Jul-17 13:00N 58°24' E 004°38'13520.9
2017-Jul-17 06:33N 56°16' E 006°01'321.0
2017-Jul-17 06:25N 56°14' E 006°03'4621.1
2017-Jul-17 04:14N 55°31' E 006°30'521.0
2017-Jul-17 04:00N 55°26' E 006°33'1021.0
2017-Jul-17 03:30N 55°16' E 006°39'1020.7
2017-Jul-17 03:01N 55°06' E 006°46'1020.3
2017-Jul-17 02:30N 54°57' E 006°53'1020.2
2017-Jul-17 02:01N 54°48' E 007°01'4720.2
2017-Jul-16 23:40N 54°08' E 007°45'320.7
2017-Jul-16 23:30N 54°07' E 007°50'1019.8
2017-Jul-16 23:00N 54°02' E 008°04'612.3
2017-Jul-16 22:30N 54°01' E 008°14'917.0
2017-Jul-16 22:00N 53°59' E 008°28'918.8
2017-Jul-16 21:30N 53°54' E 008°42'714.8
2017-Jul-16 21:00N 53°51' E 008°53'918.4
2017-Jul-16 20:30N 53°53' E 009°08'713.9
2017-Jul-16 20:00N 53°51' E 009°20'815.4
2017-Jul-16 19:30N 53°44' E 009°26'612.9
2017-Jul-16 19:01N 53°39' E 009°31'612.8
2017-Jul-16 18:30N 53°34' E 009°39'510.9
2017-Jul-16 18:01N 53°33' E 009°49'4 8.7
2017-Jul-16 17:30N 53°33' E 009°56'0 0.8
2017-Jul-16 17:01N 53°33' E 009°56'0 0.0
2017-Jul-16 16:31N 53°33' E 009°56'0 0.0
2017-Jul-16 16:00N 53°33' E 009°56'0 0.0
2017-Jul-16 15:28N 53°33' E 009°56'0 0.0
2017-Jul-16 15:00N 53°33' E 009°56'0 0.0
2017-Jul-16 14:30N 53°33' E 009°56'0 0.0
2017-Jul-16 14:01N 53°33' E 009°56'0 0.0
2017-Jul-16 13:31N 53°33' E 009°56'0 0.0
2017-Jul-16 13:01N 53°33' E 009°56'0 0.0
2017-Jul-16 12:30N 53°33' E 009°56'0 0.0
2017-Jul-16 12:00N 53°33' E 009°56'0 0.0
2017-Jul-16 11:30N 53°33' E 009°56'0 0.0
2017-Jul-16 11:00N 53°33' E 009°56'0 0.0
2017-Jul-16 10:30N 53°33' E 009°56'0 0.0
2017-Jul-16 10:00N 53°33' E 009°56'0 0.0
2017-Jul-16 09:27N 53°33' E 009°56'0 0.0
2017-Jul-16 09:01N 53°33' E 009°56'0 0.0
2017-Jul-16 08:30N 53°33' E 009°56'0 0.0
2017-Jul-16 08:00N 53°33' E 009°56'0 0.0
2017-Jul-16 07:30N 53°33' E 009°56'0 0.0
2017-Jul-16 07:01N 53°33' E 009°56'0 0.0
2017-Jul-16 06:30N 53°33' E 009°56'0 0.0
2017-Jul-16 06:00N 53°33' E 009°56'0 0.0
2017-Jul-16 05:30N 53°33' E 009°56'0 0.0
2017-Jul-16 05:00N 53°33' E 009°56'0 0.0
2017-Jul-16 04:30N 53°33' E 009°56'0 0.0
2017-Jul-16 04:00N 53°33' E 009°56'0 0.0
2017-Jul-16 03:30N 53°33' E 009°56'2 4.5
2017-Jul-16 03:01N 53°33' E 009°53'4 7.7
2017-Jul-16 02:31N 53°34' E 009°46'510.2
2017-Jul-16 02:01N 53°35' E 009°38'510.2
2017-Jul-16 01:31N 53°38' E 009°32'510.9
2017-Jul-16 01:01N 53°43' E 009°28'611.8
2017-Jul-16 00:31N 53°48' E 009°23'714.3
2017-Jul-16 00:00N 53°53' E 009°14'510.8
2017-Jul-15 23:31N 53°52' E 009°04'714.8
2017-Jul-15 23:01N 53°50' E 008°52'612.8
2017-Jul-15 22:31N 53°53' E 008°42'815.5
2017-Jul-15 22:01N 53°58' E 008°32'916.9
2017-Jul-15 21:30N 53°60' E 008°18'612.9
2017-Jul-15 21:01N 53°59' E 008°07'612.4
2017-Jul-15 20:30N 54°01' E 007°57'713.4
2017-Jul-15 20:00N 54°05' E 007°47'713.4
2017-Jul-15 19:30N 54°09' E 007°39'815.6
2017-Jul-15 19:00N 54°16' E 007°33'815.5
2017-Jul-15 18:30N 54°23' E 007°27'1015.5
2017-Jul-15 17:52N 54°32' E 007°18'615.6
2017-Jul-15 17:29N 54°37' E 007°13'715.8
2017-Jul-15 17:00N 54°43' E 007°07'815.9
2017-Jul-15 16:30N 54°50' E 007°00'815.9
2017-Jul-15 16:00N 54°58' E 006°54'816.3
2017-Jul-15 15:30N 55°05' E 006°49'816.4
2017-Jul-15 15:00N 55°13' E 006°43'1716.6
2017-Jul-15 14:00N 55°28' E 006°33'17417.0
2017-Jul-15 03:45N 58°11' E 004°38'717.7
2017-Jul-15 03:20N 58°18' E 004°33'617.7
2017-Jul-15 02:58N 58°24' E 004°29'817.8
2017-Jul-15 02:30N 58°31' E 004°23'917.3
2017-Jul-15 01:58N 58°40' E 004°16'11416.7
2017-Jul-14 19:07N 60°35' E 004°22'217.7
2017-Jul-14 19:00N 60°36' E 004°24'917.9
2017-Jul-14 18:30N 60°43' E 004°35'713.8
2017-Jul-14 18:00N 60°42' E 004°49'815.9
2017-Jul-14 17:30N 60°35' E 004°55'918.1
2017-Jul-14 17:00N 60°27' E 005°01'612.3
2017-Jul-14 16:30N 60°24' E 005°13'3 5.8
2017-Jul-14 16:00N 60°23' E 005°18'0 0.0
2017-Jul-14 15:30N 60°23' E 005°18'0 0.0
2017-Jul-14 15:00N 60°23' E 005°18'0 0.0
2017-Jul-14 14:30N 60°23' E 005°18'0 0.0
2017-Jul-14 11:27N 60°23' E 005°18'0 0.0
2017-Jul-14 11:00N 60°23' E 005°18'0 0.0
2017-Jul-14 10:30N 60°23' E 005°18'0 0.0
2017-Jul-14 10:00N 60°23' E 005°18'0 0.0
2017-Jul-14 09:30N 60°23' E 005°18'0 0.0
2017-Jul-14 09:00N 60°23' E 005°18'0 0.0
2017-Jul-14 08:30N 60°23' E 005°18'0 0.0
2017-Jul-14 08:00N 60°23' E 005°18'0 0.0
2017-Jul-14 07:30N 60°23' E 005°18'0 0.0
2017-Jul-14 07:00N 60°23' E 005°18'0 0.0
2017-Jul-14 06:30N 60°23' E 005°18'0 0.0
2017-Jul-14 06:00N 60°23' E 005°18'0 0.2
2017-Jul-14 05:30N 60°24' E 005°18'2 3.5
2017-Jul-14 05:00N 60°24' E 005°15'4 8.4
2017-Jul-14 04:30N 60°24' E 005°06'713.3
2017-Jul-14 04:00N 60°30' E 004°58'918.0
2017-Jul-14 03:30N 60°38' E 004°53'714.7
2017-Jul-14 03:00N 60°44' E 004°44'611.2
2017-Jul-14 02:30N 60°46' E 004°33'612.0
2017-Jul-14 02:00N 60°51' E 004°26'713.7
2017-Jul-14 01:30N 60°58' E 004°20'7113.2
2017-Jul-13 20:05N 62°09' E 004°28'115.5
2017-Jul-13 20:00N 62°10' E 004°30'815.5
2017-Jul-13 19:30N 62°15' E 004°43'815.5
2017-Jul-13 19:00N 62°19' E 004°56'815.7
2017-Jul-13 18:30N 62°24' E 005°09'815.5
2017-Jul-13 18:00N 62°29' E 005°22'815.2
2017-Jul-13 17:30N 62°30' E 005°38'815.4
2017-Jul-13 17:00N 62°27' E 005°54'612.3
2017-Jul-13 16:30N 62°27' E 006°07'2 3.3
2017-Jul-13 16:00N 62°28' E 006°09'0 0.0
2017-Jul-13 15:30N 62°28' E 006°09'0 0.0
2017-Jul-13 15:00N 62°28' E 006°09'0 0.0
2017-Jul-13 14:30N 62°28' E 006°09'0 0.0
2017-Jul-13 14:00N 62°28' E 006°09'0 0.0
2017-Jul-13 13:30N 62°28' E 006°09'0 0.0
2017-Jul-13 13:00N 62°28' E 006°09'0 0.0
2017-Jul-13 12:30N 62°28' E 006°09'0 0.0
2017-Jul-13 12:00N 62°28' E 006°09'0 0.0
2017-Jul-13 11:30N 62°28' E 006°09'0 0.0
2017-Jul-13 11:00N 62°28' E 006°09'0 0.0
2017-Jul-13 10:30N 62°28' E 006°09'0 0.0
2017-Jul-13 10:00N 62°28' E 006°09'0 0.0
2017-Jul-13 09:30N 62°28' E 006°09'0 0.0
2017-Jul-13 09:00N 62°28' E 006°09'0 0.0
2017-Jul-13 08:30N 62°28' E 006°09'0 0.0
2017-Jul-13 08:00N 62°28' E 006°09'0 0.0
2017-Jul-13 07:30N 62°28' E 006°09'0 0.0
2017-Jul-13 07:00N 62°28' E 006°09'0 0.1
2017-Jul-13 06:30N 62°28' E 006°09'1 2.2
2017-Jul-13 06:00N 62°27' E 006°09'612.8
2017-Jul-13 05:29N 62°27' E 005°55'713.5
2017-Jul-13 05:00N 62°30' E 005°42'713.7
2017-Jul-13 04:30N 62°36' E 005°34'917.6
2017-Jul-13 04:00N 62°43' E 005°43'918.1
2017-Jul-13 03:30N 62°52' E 005°51'35118.8
2017-Jul-12 08:49N 68°05' E 012°16'721.8
2017-Jul-12 08:30N 68°10' E 012°27'1121.8
2017-Jul-12 08:00N 68°19' E 012°43'1121.6
2017-Jul-12 07:30N 68°28' E 013°02'1121.6
2017-Jul-12 07:00N 68°36' E 013°21'1121.4
2017-Jul-12 06:29N 68°45' E 013°39'1121.3
2017-Jul-12 06:00N 68°54' E 013°55'1121.7
2017-Jul-12 05:30N 69°02' E 014°13'1121.5
2017-Jul-12 05:00N 69°10' E 014°32'1121.5
2017-Jul-12 04:30N 69°18' E 014°55'1121.6
2017-Jul-12 04:00N 69°25' E 015°17'1121.9
2017-Jul-12 03:30N 69°33' E 015°40'1121.8
2017-Jul-12 03:00N 69°40' E 016°03'1121.4
2017-Jul-12 02:30N 69°48' E 016°25'1121.4
2017-Jul-12 02:00N 69°55' E 016°48'4821.4
2017-Jul-11 23:46N 70°27' E 018°31'620.9
2017-Jul-11 23:30N 70°30' E 018°46'1020.6
2017-Jul-11 23:00N 70°34' E 019°14'1121.4
2017-Jul-11 22:30N 70°38' E 019°43'4222.2
2017-Jul-11 20:36N 70°55' E 021°41'222.4
2017-Jul-11 20:30N 70°56' E 021°47'1121.8
2017-Jul-11 20:00N 71°00' E 022°17'1121.1
2017-Jul-11 19:30N 71°04' E 022°47'1121.1
2017-Jul-11 19:00N 71°08' E 023°18'1020.7
2017-Jul-11 18:30N 71°12' E 023°48'1020.8
2017-Jul-11 18:00N 71°11' E 024°20'1121.3
2017-Jul-11 17:30N 71°12' E 024°53'1020.7
2017-Jul-11 17:00N 71°13' E 025°25'1020.6
2017-Jul-11 16:30N 71°11' E 025°56'1019.8
2017-Jul-11 16:00N 71°03' E 026°17'816.5
2017-Jul-11 15:30N 70°57' E 025°59'2 3.6
2017-Jul-11 15:00N 70°59' E 025°58'0 0.0
2017-Jul-11 14:28N 70°59' E 025°58'0 0.0
2017-Jul-11 13:58N 70°59' E 025°58'0 0.0
2017-Jul-11 13:28N 70°59' E 025°58'0 0.0
2017-Jul-11 12:58N 70°59' E 025°58'0 0.0
2017-Jul-11 12:28N 70°59' E 025°58'0 0.0
2017-Jul-11 11:58N 70°59' E 025°58'0 0.0
2017-Jul-11 11:28N 70°59' E 025°58'0 0.0
2017-Jul-11 10:58N 70°59' E 025°58'0 0.0
2017-Jul-11 10:22N 70°59' E 025°58'0 0.0
2017-Jul-11 09:58N 70°59' E 025°58'0 0.0
2017-Jul-11 09:28N 70°59' E 025°58'0 0.0
2017-Jul-11 08:58N 70°59' E 025°58'0 0.0
2017-Jul-11 08:28N 70°59' E 025°58'0 0.0
2017-Jul-11 07:58N 70°59' E 025°58'0 0.0
2017-Jul-11 07:28N 70°59' E 025°58'0 0.0
2017-Jul-11 06:58N 70°59' E 025°58'0 0.0
2017-Jul-11 06:28N 70°59' E 025°58'0 0.0
2017-Jul-11 05:58N 70°59' E 025°58'0 0.0
2017-Jul-11 05:30N 70°59' E 025°58'2 3.8
2017-Jul-11 05:00N 70°57' E 025°55'510.6
2017-Jul-11 04:30N 70°56' E 025°41'5 9.3
2017-Jul-11 04:00N 70°58' E 025°27'5 9.9
2017-Jul-11 03:30N 70°59' E 025°13'611.5
2017-Jul-11 03:00N 70°59' E 024°56'713.8
2017-Jul-11 02:30N 71°02' E 024°36'713.2
2017-Jul-11 02:00N 70°58' E 024°21'714.0
2017-Jul-11 01:30N 70°53' E 024°05'713.2
2017-Jul-11 01:00N 70°49' E 023°49'612.6
2017-Jul-11 00:30N 70°45' E 023°34'612.5
2017-Jul-11 00:00N 70°40' E 023°22'612.4
2017-Jul-10 23:30N 70°35' E 023°12'612.1
2017-Jul-10 23:01N 70°31' E 022°58'712.7
2017-Jul-10 22:30N 70°29' E 022°40'612.5
2017-Jul-10 22:01N 70°27' E 022°22'712.8
2017-Jul-10 21:30N 70°26' E 022°03'612.9
2017-Jul-10 21:00N 70°24' E 021°44'611.8
2017-Jul-10 20:30N 70°21' E 021°31'612.4
2017-Jul-10 20:00N 70°16' E 021°18'612.3
2017-Jul-10 19:30N 70°12' E 021°05'713.6
2017-Jul-10 19:01N 70°06' E 020°58'612.5
2017-Jul-10 18:31N 70°02' E 020°43'713.5
2017-Jul-10 18:00N 70°00' E 020°24'  

Dump ship's entire track history